Amine Zeffane

Scout - JS Kabylie
19 Aug 2027
Donnerstag
Verarbeitung

Persönlichkeit

Anpassungsfähigkeit (6) Ehrgeiz (1) Kontroverse (12) Loyalität (3) Druck (19) Professionalität (15) Fairness (10) Temperament (16)

Profil

Trainerstil Demokratisch
Lizenz Kontinentale C
Entschlossenheit 10
Menschenführung 8
Motivation 7
Disziplin 11
Arbeitszufriedenheit
72%
Ermüdung
0%
Rolle Scout
Gehalt 33.5K p/W
Vertrag 14.03.2030

Leistung

Verhalten Gut
Trainingseffektivität
25%
Spielerentwicklung
50%
Verletzungsprävention
45%
Taktische Umsetzung
50%

Letzte Ereignisse

Spieler begutachtet 14T her
Nahm an einer Scouting-Besprechung teil 14T her
Nahm an einer Scouting-Besprechung teil 21T her
Nahm an einer Scouting-Besprechung teil 28T her
Nahm an einer Scouting-Besprechung teil 35T her
Nahm an einer Scouting-Besprechung teil 42T her
Nahm an einer Scouting-Besprechung teil 49T her
Nahm an einer Scouting-Besprechung teil 56T her

Aktuell beobachtet

135
Spieler Verein Status Fähigkeit Vertrauen Beobachtet Zuletzt beobachtet Letzte Stimme
Richard Koné Queens Park Rangers Aktiv 134 / 115 40% 2 02.08.2027 -
Carlton Morris Derby County Aktiv 130 / 134 40% 1 02.08.2027 -
Adel Bouzida Paradou Verloren 99 / 105 51% 1 05.07.2027 -
Alaa Eddine Aissani ES Ben Aknoun Aktiv 77 / 89 51% 1 14.06.2027 -
Edoardo Bove Watford Aktiv 127 / 134 40% 1 31.05.2027 -
Hamza Choudhury Leicester City Aktiv 128 / 138 40% 1 31.05.2027 -
Aaron Collins Milton Keynes Dons Aktiv 131 / 117 40% 1 30.05.2027 -
Ivan Toney Al-Ahli Aktiv 169 / 154 40% 7 29.05.2027 -
Kellen Fisher Norwich City Aktiv 119 / 140 40% 1 28.05.2027 -
Dara O'Shea Ipswich Town Aktiv 123 / 122 40% 1 28.05.2027 -
Marezi Portsmouth Aktiv 106 / 138 40% 1 28.05.2027 -
Niall Ennis Blackpool Aktiv 116 / 114 40% 1 26.05.2027 -
Darlin Yongwa Norwich City Aktiv 125 / 124 40% 1 25.05.2027 -
Georgie Gent Barnsley Aktiv 116 / 128 40% 1 25.05.2027 -
Daniel Kyerewaa Reading Aktiv 100 / 118 40% 1 23.05.2027 -
Finn Azaz Southampton Aktiv 147 / 122 40% 1 23.05.2027 -
George Hirst Stoke City Aktiv 149 / 125 40% 1 23.05.2027 -
Lewis Morgan SuperSport United Aktiv 122 / 119 40% 3 22.05.2027 -
Hany Mukhtar Spezia Aktiv 153 / 145 40% 2 20.05.2027 -
Thomas Henry Reggiana Aktiv 111 / 123 40% 1 20.05.2027 -
Marco Tumminello Benevento Aktiv 122 / 123 40% 2 19.05.2027 -
Peter Olayinka Al-Wehda Aktiv 118 / 108 40% 4 18.05.2027 -
Zakaria Naïdji MC Alger Aktiv 113 / 98 40% 1 18.05.2027 -
Elton Acolatse Al-Hazem Aktiv 114 / 127 40% 2 16.05.2027 -
Santiago Pierotti Lecce Aktiv 131 / 145 40% 3 16.05.2027 -
Aschraf El Mahdioui Al-Taawoun Aktiv 140 / 133 40% 3 14.05.2027 -
Wilfried Kanga Al-Fateh Aktiv 137 / 117 40% 2 14.05.2027 -
Florian Grillitsch Frosinone Aktiv 150 / 136 40% 1 14.05.2027 -
Bernat Guiu Virtus Entella Aktiv 124 / 105 40% 1 11.05.2027 -
Rayan Bournemouth Aktiv 123 / 142 40% 1 10.05.2027 -
Moussa Koné Al-Ra'ed Aktiv 129 / 122 40% 3 08.05.2027 -
Yakou Meïté Damac Aktiv 97 / 119 40% 1 08.05.2027 -
Bandar Yaqoob ES Setif Aktiv 117 / 132 40% 3 07.05.2027 -
Patrick Maswanganyi Orlando Pirates Aktiv 135 / 98 40% 2 06.05.2027 -
Musa Barrow Al-Khaleej Aktiv 121 / 137 40% 2 04.05.2027 -
Brayan León Mamelodi Sundowns Aktiv 100 / 123 40% 1 04.05.2027 -
Simone Mazzocchi Cosenza Aktiv 107 / 128 40% 4 03.05.2027 -
Giuseppe Di Serio Spezia Aktiv 125 / 111 40% 3 03.05.2027 -
Leandro Antunes Al-Riyadh Aktiv 128 / 126 40% 3 02.05.2027 -
Evidence Makgopa Orlando Pirates Aktiv 110 / 99 40% 3 30.04.2027 -
Nabil Alioui Al-Nassr Aktiv 93 / 101 40% 2 30.04.2027 -
Cristian Shpendi Cesena Aktiv 142 / 143 40% 1 29.04.2027 -
Guillem Molina Huesca Aktiv 126 / 95 40% 1 29.04.2027 -
Samuele Angori Pisa Aktiv 121 / 140 40% 1 29.04.2027 -
Emmanuel Ntim Ashanti Gold Aktiv 103 / 96 40% 1 28.04.2027 -
Bonheur Mugisha Al-Hazem Aktiv 121 / 93 40% 1 28.04.2027 -
Eduard Spertsyan Al-Ahli Aktiv 132 / 139 40% 2 27.04.2027 -
Crysencio Summerville Al-Hilal Aktiv 157 / 139 40% 1 27.04.2027 -
Silvio Merkaj Vicenza Aktiv 131 / 111 40% 1 23.04.2027 -
Parfait Guiagon Al-Taawoun Aktiv 146 / 116 40% 2 13.04.2027 -
Ettore Gliozzi Mantova Aktiv 116 / 123 40% 1 12.04.2027 -
Matteo Rover Reggiana Aktiv 122 / 107 40% 1 11.04.2027 -
Themba Ngcobo SuperSport United Aktiv 99 / 104 40% 2 09.04.2027 -
Farid El Melali CR Belouizdad Aktiv 124 / 127 40% 1 09.04.2027 -
Siyanda Ndlovu Bloemfontein Celtic Aktiv 135 / 114 40% 1 09.04.2027 -
Amur Kalmykov Spartak Kostroma Aktiv 105 / 97 40% 1 07.04.2027 -
Steven Bergwijn Al-Ittihad Aktiv 140 / 154 40% 5 04.04.2027 -
Hamad Hassan Al Shabab Aktiv 100 / 122 40% 2 01.04.2027 -
Josh Brownhill Al-Shabab Aktiv 113 / 128 40% 2 01.04.2027 -
Martin Sekulić Ural Aktiv 99 / 118 40% 1 01.04.2027 -
Jamal Harkass Damac Aktiv 106 / 106 40% 2 31.03.2027 -
Merih Demiral Al-Ahli Aktiv 135 / 136 40% 2 31.03.2027 -
Abdel Medioub CS Constantine Aktiv 111 / 119 40% 1 26.03.2027 -
Edarlyn Reyes Arsenal Tula Aktiv 116 / 97 40% 1 26.03.2027 -
Etiosa Ighodaro Kaizer Chiefs Aktiv 96 / 102 40% 1 25.03.2027 -
Dhari Al-Anazi Al-Shabab Aktiv 97 / 121 40% 2 23.03.2027 -
Williams Manyama SuperSport United Aktiv 105 / 102 40% 2 23.03.2027 -
Tashreeq Matthews Mamelodi Sundowns Aktiv 126 / 103 40% 1 23.03.2027 -
Ahmed Bamasud Al-Fayha Aktiv 110 / 116 40% 3 22.03.2027 -
Oumar Gonzalez Al-Ra'ed Aktiv 133 / 122 40% 2 22.03.2027 -
Dion Lopy Al-Ittihad Aktiv 132 / 130 40% 4 20.03.2027 -
Roger Ibañez Al-Ahli Aktiv 150 / 141 40% 1 20.03.2027 -
Kennedy Boateng Al-Fateh Aktiv 139 / 123 40% 1 19.03.2027 -
Miguel Crespo Al-Khaleej Aktiv 110 / 126 40% 1 18.03.2027 -
Musab Al-Juwayr Al-Qadisiyah Aktiv 135 / 134 40% 1 18.03.2027 -
Hugo Moura Al-Fayha Aktiv 126 / 125 40% 2 15.03.2027 -
Mahamadou Doumbia Al-Ittihad Aktiv 121 / 138 40% 6 14.03.2027 -
Radhi Al-Otaibi Al-Ettifaq Aktiv 98 / 104 40% 2 14.03.2027 -
Mohau Nkota Al-Ettifaq Aktiv 106 / 120 40% 1 13.03.2027 -
Houssem Aouar Al-Ittihad Aktiv 126 / 129 40% 1 11.03.2027 -
Matheus Gonçalves Al-Ahli Aktiv 109 / 122 40% 1 10.03.2027 -
Théo Hernández Al-Hilal Aktiv 153 / 146 40% 2 08.03.2027 -
Oscar Al-Taawoun Aktiv 152 / 154 40% 1 07.03.2027 -
Mduduzi Shabalala Kaizer Chiefs Aktiv 130 / 107 40% 1 05.03.2027 -
Tshepang Moremi Orlando Pirates Aktiv 107 / 113 40% 3 02.03.2027 -
Mohamed Simakan Al-Nassr Aktiv 152 / 154 40% 5 01.03.2027 -
Mohammed Abu Al-Shamat Al-Qadisiyah Aktiv 112 / 113 40% 1 01.03.2027 -
Houssemeddine Ghacha USM Alger Aktiv 107 / 103 40% 1 27.02.2027 -
Thabiso Lebitso Orlando Pirates Aktiv 95 / 102 40% 1 26.02.2027 -
Jaime Seoane Al-Faisaly Aktiv 117 / 119 40% 1 26.02.2027 -
Galeno Al-Ahli Aktiv 166 / 157 40% 1 24.02.2027 -
Oswin Appollis Orlando Pirates Aktiv 118 / 112 40% 1 23.02.2027 -
Morlaye Sylla Damac Aktiv 110 / 140 40% 2 22.02.2027 -
Jordan Lotomba Bloemfontein Celtic Aktiv 117 / 135 40% 2 21.02.2027 -
Tin Jedvaj Al-Shabab Aktiv 127 / 122 40% 1 20.02.2027 -
Ziyad Al-Qahtani Al-Diriyah Aktiv 109 / 109 40% 1 19.02.2027 -
Angelo Fulgini Al-Khaleej Aktiv 127 / 125 40% 1 19.02.2027 -
Óscar Al-Diriyah Aktiv 128 / 124 40% 1 16.02.2027 -
Ali Majrashi Al-Ahli Aktiv 112 / 121 40% 2 15.02.2027 -
Luis Haquín Al-Ta'ee Aktiv 111 / 118 40% 1 15.02.2027 -
Aubrey Modiba Mamelodi Sundowns Aktiv 119 / 135 40% 1 15.02.2027 -
Thalente Mbatha Orlando Pirates Aktiv 108 / 132 40% 1 10.02.2027 -
Tariq Abdullah Damac Aktiv 107 / 115 40% 1 10.02.2027 -
Christopher Bonsu Baah Al-Qadisiyah Aktiv 119 / 138 40% 1 10.02.2027 -
José Martínes CSKA 1948 Aktiv 113 / 92 40% 1 10.02.2027 -
Mandla Erasmus SuperSport United Aktiv 106 / 114 40% 4 06.02.2027 -
Aboubacar Bah Al-Hazem Aktiv 101 / 103 40% 2 03.02.2027 -
Álex Centelles Levski Aktiv 110 / 126 40% 3 01.02.2027 -
Samú Al-Nassr Aktiv 163 / 136 40% 3 01.01.2027 -
Mohammed Mahzari Al-Hilal Aktiv 112 / 103 40% 1 27.12.2026 -
Erick Jali Black Aces Aktiv 95 / 89 40% 1 27.12.2026 -
Yacine Adli Al-Shabab Aktiv 128 / 152 40% 3 26.12.2026 -
Brooklyn Poggenpoel Maritzburg United Aktiv 110 / 121 40% 1 26.12.2026 -
Zineddine Belaïd Al-Taawoun Aktiv 109 / 122 40% 1 11.12.2026 -
Ziyad Al-Johani Al-Ahli Aktiv 121 / 131 40% 1 04.12.2026 -
Ismail Abdulrahman Al Shaab Aktiv 128 / 137 40% 2 19.11.2026 -
Lucas Pimenta Al Wahda Aktiv 119 / 134 40% 1 19.11.2026 -
Amadou Niang Al Ain Aktiv 120 / 122 40% 1 15.11.2026 -
Moussa N'Diaye Al Nasr Aktiv 99 / 104 40% 3 08.11.2026 -
Matías Palacios Al Ain Aktiv 137 / 134 40% 1 08.11.2026 -
David Petrović Al Nasr Aktiv 102 / 132 40% 1 06.11.2026 -
Mihai Lixandru Al-Fateh Aktiv 108 / 112 40% 1 04.11.2026 -
João Moreira Al Nasr Aktiv 110 / 121 40% 1 02.11.2026 -
Adam Gnezda Čerin Al Wahda Aktiv 139 / 114 40% 3 27.10.2026 -
Jadsom Al Wahda Aktiv 129 / 130 40% 2 27.10.2026 -
Ahmed Al-Nakhli Al-Hazem Aktiv 99 / 103 40% 1 24.10.2026 -
Abdoulaye Kanté Al-Ettifaq Aktiv 110 / 118 40% 1 24.10.2026 -
Bassam Al-Hurayji Al-Taawoun Aktiv 96 / 109 40% 1 22.10.2026 -
Faisal Al-Ghamdi Al-Ittihad Aktiv 117 / 105 40% 1 22.10.2026 -
Adis Jašić Al Ain Aktiv 122 / 123 40% 1 17.10.2026 -
Sultan Mabkhout Al Ahli Aktiv 121 / 101 40% 1 14.10.2026 -
Guga Al Wahda Aktiv 115 / 116 40% 1 12.10.2026 -
Murad Al-Hawsawi Al-Hilal Aktiv 110 / 94 40% 1 11.10.2026 -
Khaled Mounir Allaoui JS Saoura Aktiv 66 / 81 51% 1 03.08.2026 -
Lukáš Haraslín Al-Fateh Aktiv 141 / 133 40% 1 02.08.2026 -